Time;durP1;ratioP1;P1;durP2;ratioP2;P2;SDS_P1;SDS_P2;PMS_P1;PMS_P2;Temp;Humidity;BMP_temperature;BMP_pressure;BME280_temperature;BME280_humidity;BME280_pressure;Samples;Min_cycle;Max_cycle;Signal;HPM_P1;HPM_P2
2022/11/02 00:00:16;;;;;;;1.73;1.55;;;7.60;99.90;;;;;;4826650;29;20085;-85
2022/11/02 00:02:44;;;;;;;1.90;1.80;;;7.60;99.90;;;;;;4826750;29;20070;-84
2022/11/02 00:05:15;;;;;;;2.05;1.85;;;7.60;99.90;;;;;;4823061;29;20512;-86
2022/11/02 00:07:42;;;;;;;2.47;1.90;;;7.60;99.90;;;;;;4823307;29;20135;-84
2022/11/02 00:10:10;;;;;;;2.20;1.75;;;7.60;99.90;;;;;;4821964;29;20062;-85
2022/11/02 00:12:37;;;;;;;2.10;1.90;;;7.50;99.90;;;;;;4821031;29;20051;-86
2022/11/02 00:15:07;;;;;;;1.90;1.80;;;7.50;99.90;;;;;;4822458;29;20055;-83
2022/11/02 00:17:36;;;;;;;4.50;1.60;;;7.50;99.90;;;;;;4823393;29;20081;-85
2022/11/02 00:20:06;;;;;;;1.80;1.70;;;7.50;99.90;;;;;;4819702;29;20534;-87
2022/11/02 00:22:34;;;;;;;2.78;1.70;;;7.50;99.90;;;;;;4800828;29;20077;-84
2022/11/02 00:25:03;;;;;;;2.47;2.05;;;7.40;99.90;;;;;;4820736;29;20063;-83
2022/11/02 00:27:31;;;;;;;1.80;1.70;;;7.50;99.90;;;;;;4818654;29;20082;-83
2022/11/02 00:29:59;;;;;;;2.67;1.70;;;7.40;99.90;;;;;;4823934;29;20465;-87
2022/11/02 00:32:27;;;;;;;2.45;1.63;;;7.40;99.90;;;;;;4820407;29;20137;-85
2022/11/02 00:34:55;;;;;;;1.88;1.63;;;7.40;99.90;;;;;;4824181;29;20054;-86
2022/11/02 00:37:23;;;;;;;2.30;1.73;;;7.40;99.90;;;;;;4819868;29;20512;-85
2022/11/02 00:39:50;;;;;;;2.10;1.90;;;7.40;99.90;;;;;;4825397;29;20137;-86
2022/11/02 00:42:17;;;;;;;2.47;1.48;;;7.40;99.90;;;;;;4820224;29;20400;-84
2022/11/02 00:44:44;;;;;;;1.42;1.33;;;7.40;99.90;;;;;;4821992;29;20046;-85
2022/11/02 00:47:12;;;;;;;1.88;1.58;;;7.40;99.90;;;;;;4819911;29;20058;-84
2022/11/02 00:49:39;;;;;;;1.60;1.50;;;7.40;99.90;;;;;;4821661;29;20137;-84
2022/11/02 00:52:10;;;;;;;1.45;1.30;;;7.40;99.90;;;;;;4827624;29;20052;-86
2022/11/02 00:54:37;;;;;;;2.05;1.60;;;7.40;99.90;;;;;;4827197;29;20095;-85
2022/11/02 00:57:04;;;;;;;2.30;1.70;;;7.40;99.90;;;;;;4826436;29;20058;-87
2022/11/02 00:59:32;;;;;;;1.50;1.40;;;7.50;99.90;;;;;;4808992;29;20057;-83
2022/11/02 01:01:59;;;;;;;1.55;1.45;;;7.40;99.90;;;;;;4824364;29;20050;-84
2022/11/02 01:04:28;;;;;;;1.40;1.30;;;7.40;99.90;;;;;;4823843;29;20107;-83
2022/11/02 01:06:55;;;;;;;2.17;1.50;;;7.40;99.90;;;;;;4825660;29;20077;-84
2022/11/02 01:09:24;;;;;;;1.30;1.10;;;7.40;99.90;;;;;;4824619;29;20054;-86
2022/11/02 01:11:51;;;;;;;1.80;1.33;;;7.30;99.90;;;;;;4830866;29;20073;-84
2022/11/02 01:14:19;;;;;;;1.30;1.20;;;7.30;99.90;;;;;;4823430;29;20573;-84
2022/11/02 01:16:46;;;;;;;0.90;0.90;;;7.40;99.90;;;;;;4823584;29;20052;-82
2022/11/02 01:19:14;;;;;;;1.52;1.02;;;7.40;99.90;;;;;;4838185;29;20133;-85
2022/11/02 01:21:41;;;;;;;1.67;1.58;;;7.40;99.90;;;;;;4827705;29;20571;-85
2022/11/02 01:24:09;;;;;;;1.30;1.23;;;7.40;99.90;;;;;;4824484;29;20381;-84
2022/11/02 01:26:37;;;;;;;1.63;1.23;;;7.40;99.90;;;;;;4824057;29;20415;-85
2022/11/02 01:29:05;;;;;;;2.28;1.73;;;7.30;99.90;;;;;;4824996;29;20078;-85
2022/11/02 01:31:32;;;;;;;1.50;1.40;;;7.30;99.90;;;;;;4821322;29;20523;-84
2022/11/02 01:33:59;;;;;;;1.50;1.40;;;7.30;99.90;;;;;;4821498;29;20424;-84
2022/11/02 01:36:26;;;;;;;1.40;1.30;;;7.30;99.90;;;;;;4821605;29;20050;-86
2022/11/02 01:38:54;;;;;;;1.92;1.63;;;7.30;99.90;;;;;;4823739;29;20595;-84
2022/11/02 01:41:22;;;;;;;1.77;1.67;;;7.30;99.90;;;;;;4820878;29;20055;-85
2022/11/02 01:43:55;;;;;;;1.67;1.58;;;7.30;99.90;;;;;;4822107;29;20050;-85
2022/11/02 01:46:24;;;;;;;;;;;7.30;99.90;;;;;;4822676;29;20069;-86
2022/11/02 01:48:58;;;;;;;1.92;1.77;;;7.40;99.90;;;;;;4822219;29;19930;-82
2022/11/02 01:51:29;;;;;;;1.75;1.65;;;7.40;99.90;;;;;;4823841;29;20072;-84
2022/11/02 01:54:00;;;;;;;2.00;1.75;;;7.40;99.90;;;;;;4823451;29;20405;-79
2022/11/02 01:56:35;;;;;;;2.00;1.80;;;7.40;99.90;;;;;;4821845;29;20062;-80
2022/11/02 01:59:10;;;;;;;1.85;1.52;;;7.30;99.90;;;;;;4821773;29;20054;-79
2022/11/02 02:01:38;;;;;;;1.52;1.42;;;7.30;99.90;;;;;;4805078;29;20058;-79
2022/11/02 02:04:05;;;;;;;2.10;2.00;;;7.30;99.90;;;;;;4821694;29;20050;-80
2022/11/02 02:06:38;;;;;;;1.75;1.65;;;7.30;99.90;;;;;;4819903;29;20461;-80
2022/11/02 02:09:07;;;;;;;2.20;1.80;;;7.30;99.90;;;;;;4821411;29;20054;-79
2022/11/02 02:11:37;;;;;;;2.20;2.00;;;7.30;99.90;;;;;;4815567;29;20366;-79
2022/11/02 02:14:10;;;;;;;1.85;1.75;;;7.30;99.90;;;;;;4813085;29;20416;-80
2022/11/02 02:17:08;;;;;;;2.00;1.90;;;7.30;99.90;;;;;;4799517;29;20438;-80
2022/11/02 02:19:47;;;;;;;2.10;2.00;;;7.30;99.90;;;;;;4809565;29;20588;-80
2022/11/02 02:23:06;;;;;;;2.22;1.95;;;7.30;99.90;;;;;;4821512;29;20560;-79
2022/11/02 02:25:52;;;;;;;2.20;2.00;;;7.40;99.90;;;;;;4822012;29;20456;-80
2022/11/02 02:28:30;;;;;;;2.53;2.10;;;7.30;99.90;;;;;;4807902;29;20050;-79
2022/11/02 02:31:03;;;;;;;1.60;1.50;;;7.30;99.90;;;;;;4821396;29;20141;-79
2022/11/02 02:33:34;;;;;;;2.40;1.85;;;7.30;99.90;;;;;;4823240;29;20141;-79
2022/11/02 02:36:08;;;;;;;2.45;2.20;;;7.40;99.90;;;;;;4830350;29;20239;-80
2022/11/02 02:38:43;;;;;;;1.83;1.73;;;7.30;99.90;;;;;;4820450;29;20122;-80
2022/11/02 02:41:14;;;;;;;2.50;2.30;;;7.30;99.90;;;;;;4822140;29;20107;-79
2022/11/02 02:43:46;;;;;;;3.15;1.80;;;7.30;99.90;;;;;;4805834;29;20651;-80
2022/11/02 02:46:20;;;;;;;1.95;1.85;;;7.30;99.90;;;;;;4820855;29;20054;-80
2022/11/02 02:48:49;;;;;;;1.95;1.83;;;7.30;99.90;;;;;;4806484;29;20085;-81
2022/11/02 02:51:20;;;;;;;2.20;2.10;;;7.30;99.90;;;;;;4822328;29;20065;-80
2022/11/02 02:53:51;;;;;;;2.45;2.25;;;7.30;99.90;;;;;;4818823;29;20062;-79
2022/11/02 02:56:23;;;;;;;6.20;2.05;;;7.30;99.90;;;;;;4822324;29;20078;-80
2022/11/02 02:58:58;;;;;;;3.05;2.42;;;7.30;99.90;;;;;;4821190;29;20065;-80
2022/11/02 03:01:27;;;;;;;2.53;2.33;;;7.30;99.90;;;;;;4820201;29;20141;-79
2022/11/02 03:03:55;;;;;;;2.65;2.45;;;7.30;99.90;;;;;;4820887;29;20054;-77
2022/11/02 03:06:27;;;;;;;2.95;2.75;;;7.30;99.90;;;;;;4820854;29;20058;-79
2022/11/02 03:09:07;;;;;;;3.20;2.38;;;7.30;99.90;;;;;;4806431;29;20054;-79
2022/11/02 03:11:42;;;;;;;2.97;2.60;;;7.30;99.90;;;;;;4820105;29;20576;-79
2022/11/02 03:14:22;;;;;;;2.40;2.30;;;7.30;99.90;;;;;;4821072;29;20424;-80
2022/11/02 03:17:07;;;;;;;3.28;2.97;;;7.30;99.90;;;;;;4820960;29;20054;-79
2022/11/02 03:19:45;;;;;;;2.60;2.40;;;7.30;99.90;;;;;;4819847;29;20495;-80
2022/11/02 03:22:18;;;;;;;3.88;3.40;;;7.30;99.90;;;;;;4815222;29;20496;-80
2022/11/02 03:24:54;;;;;;;2.30;2.17;;;7.30;99.90;;;;;;4820523;29;20051;-80
2022/11/02 03:27:29;;;;;;;2.92;1.83;;;7.20;99.90;;;;;;4819539;29;20046;-80
2022/11/02 03:30:05;;;;;;;2.22;1.50;;;7.20;99.90;;;;;;4810696;29;20150;-81
2022/11/02 03:32:37;;;;;;;2.05;1.92;;;7.20;99.90;;;;;;4822178;29;20161;-81
2022/11/02 03:35:08;;;;;;;2.20;2.00;;;7.20;99.90;;;;;;4822154;29;20066;-80
2022/11/02 03:37:41;;;;;;;2.38;2.15;;;7.20;99.90;;;;;;4819240;29;20053;-78
2022/11/02 03:40:14;;;;;;;2.13;1.92;;;7.20;99.90;;;;;;4818784;29;20491;-79
2022/11/02 03:42:44;;;;;;;2.10;1.90;;;7.20;99.90;;;;;;4819397;29;20046;-79
2022/11/02 03:45:15;;;;;;;1.90;1.80;;;7.20;99.90;;;;;;4819787;29;20145;-79
2022/11/02 03:47:48;;;;;;;2.03;1.92;;;7.10;99.90;;;;;;4815900;29;20138;-81
2022/11/02 03:50:20;;;;;;;3.08;1.77;;;7.10;99.90;;;;;;4831782;29;20111;-82
2022/11/02 03:52:50;;;;;;;2.43;2.20;;;7.20;99.90;;;;;;4818323;29;20054;-79
2022/11/02 03:55:24;;;;;;;3.28;2.63;;;7.10;99.90;;;;;;4819324;29;20319;-82
2022/11/02 03:57:54;;;;;;;2.53;2.33;;;7.10;99.90;;;;;;4821313;29;20508;-81
2022/11/02 04:00:32;;;;;;;2.35;2.15;;;7.10;99.90;;;;;;4818669;29;20053;-80
2022/11/02 04:03:07;;;;;;;2.92;2.72;;;7.10;99.90;;;;;;4805088;29;20087;-82
2022/11/02 04:05:40;;;;;;;9.80;3.22;;;7.10;99.90;;;;;;4820928;29;20070;-80
2022/11/02 04:08:21;;;;;;;3.50;3.20;;;7.10;99.90;;;;;;4802172;29;20056;-80
2022/11/02 04:16:27;;;;;;;3.10;2.75;;;7.10;99.90;;;;;;4804893;29;20055;-86
2022/11/02 04:25:14;;;;;;;4.03;3.60;;;7.10;99.90;;;;;;4832613;29;20108;-86
2022/11/02 04:27:15;;;;;;;3.00;2.70;;;7.20;99.90;;;;;;4825712;29;20099;-85
2022/11/02 04:29:43;;;;;;;3.22;3.03;;;7.20;99.90;;;;;;4809759;29;20066;-85
2022/11/02 04:32:12;;;;;;;3.40;3.17;;;7.20;99.90;;;;;;4825510;29;20050;-85
2022/11/02 04:34:38;;;;;;;3.75;3.47;;;7.20;99.90;;;;;;4828821;29;20066;-85
2022/11/02 04:38:39;;;;;;;3.13;2.80;;;7.20;99.90;;;;;;4809420;29;20048;-85
2022/11/02 04:39:52;;;;;;;3.45;3.15;;;7.20;99.90;;;;;;4828957;29;20473;-86
2022/11/02 04:42:19;;;;;;;4.53;3.17;;;7.20;99.90;;;;;;4826639;29;20058;-87
2022/11/02 04:44:57;;;;;;;3.67;3.42;;;7.20;99.90;;;;;;4816593;29;20084;-84
2022/11/02 04:47:26;;;;;;;3.97;3.67;;;7.20;99.90;;;;;;4828520;29;20054;-85
2022/11/02 04:49:53;;;;;;;4.30;3.85;;;7.20;99.90;;;;;;4821249;29;20427;-84
2022/11/02 04:52:21;;;;;;;4.55;4.00;;;7.20;99.90;;;;;;4812447;29;20054;-89
2022/11/02 04:54:52;;;;;;;3.97;3.70;;;7.20;99.90;;;;;;4829205;29;20083;-88
2022/11/02 04:57:27;;;;;;;4.97;4.10;;;7.20;99.90;;;;;;4832014;29;20054;-85
2022/11/02 04:59:55;;;;;;;4.65;4.25;;;7.20;99.90;;;;;;4827236;29;20062;-83
2022/11/02 05:02:25;;;;;;;4.72;4.32;;;7.30;99.90;;;;;;4829005;29;20069;-85
2022/11/02 05:04:54;;;;;;;6.40;5.22;;;7.20;99.90;;;;;;4826954;29;20512;-84
2022/11/02 05:07:21;;;;;;;5.60;4.32;;;7.30;99.90;;;;;;4823266;29;20516;-84
2022/11/02 05:09:51;;;;;;;5.63;5.03;;;7.30;99.90;;;;;;4823923;29;20476;-84
2022/11/02 05:12:18;;;;;;;5.82;4.18;;;7.30;99.90;;;;;;4824626;29;20407;-82
2022/11/02 05:14:45;;;;;;;6.85;5.05;;;7.30;99.90;;;;;;4825887;29;20058;-83
2022/11/02 05:17:15;;;;;;;5.03;4.25;;;7.30;99.90;;;;;;4824589;29;20059;-82
2022/11/02 05:19:43;;;;;;;5.50;5.05;;;7.30;99.90;;;;;;4806951;29;20547;-82
2022/11/02 05:22:13;;;;;;;5.30;4.88;;;7.40;99.90;;;;;;4823517;29;20054;-83
2022/11/02 05:24:40;;;;;;;4.57;4.18;;;7.40;99.90;;;;;;4823371;29;20061;-82
2022/11/02 05:27:10;;;;;;;5.45;5.05;;;7.40;99.90;;;;;;4817676;29;20451;-81
2022/11/02 05:29:38;;;;;;;6.38;4.70;;;7.40;99.90;;;;;;4820140;29;20131;-82
2022/11/02 05:32:06;;;;;;;5.10;4.60;;;7.30;99.90;;;;;;4822034;29;20343;-83
2022/11/02 05:34:34;;;;;;;4.80;4.40;;;7.30;99.90;;;;;;4803324;29;20055;-83
2022/11/02 05:37:01;;;;;;;6.28;4.80;;;7.30;99.90;;;;;;4821510;29;20549;-86
2022/11/02 05:39:30;;;;;;;5.70;5.07;;;7.30;99.90;;;;;;4823664;29;20054;-85
2022/11/02 05:41:58;;;;;;;8.00;6.18;;;7.40;99.90;;;;;;4826352;29;20085;-86
2022/11/02 05:44:26;;;;;;;7.55;6.30;;;7.40;99.90;;;;;;4826474;29;20108;-88
2022/11/02 05:46:54;;;;;;;8.05;6.57;;;7.40;99.90;;;;;;4825056;29;20076;-87
2022/11/02 05:49:25;;;;;;;8.85;6.53;;;7.40;99.90;;;;;;4809018;29;20058;-85
2022/11/02 05:52:19;;;;;;;8.80;6.13;;;7.40;99.90;;;;;;4824414;29;20051;-87
2022/11/02 05:54:48;;;;;;;6.18;5.57;;;7.40;99.90;;;;;;4824805;29;20534;-84
2022/11/02 05:57:17;;;;;;;7.07;5.68;;;7.40;99.90;;;;;;4826716;29;20046;-86
2022/11/02 05:59:44;;;;;;;9.63;6.13;;;7.40;99.90;;;;;;4808879;29;20062;-85
2022/11/02 06:02:12;;;;;;;7.13;6.43;;;7.40;99.90;;;;;;4823963;29;20054;-85
2022/11/02 06:04:39;;;;;;;8.20;6.65;;;7.50;99.90;;;;;;4828820;29;20077;-86
2022/11/02 06:07:07;;;;;;;5.97;5.03;;;7.50;99.90;;;;;;4826641;29;20062;-86
2022/11/02 06:09:35;;;;;;;6.25;5.63;;;7.50;99.90;;;;;;4826030;29;20058;-86
2022/11/02 06:12:04;;;;;;;7.07;6.45;;;7.40;99.90;;;;;;4821496;29;20054;-84
2022/11/02 06:14:32;;;;;;;7.68;6.20;;;7.40;99.90;;;;;;4822651;29;20149;-85
2022/11/02 06:16:59;;;;;;;7.10;6.38;;;7.40;99.90;;;;;;4827486;29;20107;-83
2022/11/02 06:19:26;;;;;;;7.95;6.05;;;7.40;99.90;;;;;;4827831;29;20109;-83
2022/11/02 06:21:53;;;;;;;8.60;6.00;;;7.40;99.90;;;;;;4825249;29;20058;-83
2022/11/02 06:24:21;;;;;;;7.00;6.30;;;7.40;99.90;;;;;;4837262;29;20520;-83
2022/11/02 06:26:48;;;;;;;12.18;7.28;;;7.40;99.90;;;;;;4806736;29;20389;-83
2022/11/02 06:29:17;;;;;;;8.25;6.72;;;7.50;99.90;;;;;;4823422;29;20149;-83
2022/11/02 06:31:47;;;;;;;11.20;7.07;;;7.40;99.90;;;;;;4823160;29;20050;-83
2022/11/02 06:34:17;;;;;;;9.40;7.30;;;7.40;99.90;;;;;;4822435;29;20064;-82
2022/11/02 06:36:45;;;;;;;7.93;6.72;;;7.40;99.90;;;;;;4842139;29;20092;-82
2022/11/02 06:39:12;;;;;;;10.20;6.85;;;7.50;99.90;;;;;;4846713;29;20127;-82
2022/11/02 06:41:40;;;;;;;10.02;6.95;;;7.50;99.90;;;;;;4791324;29;20149;-83
2022/11/02 06:44:07;;;;;;;12.23;6.97;;;7.50;99.90;;;;;;4807439;29;20456;-81
2022/11/02 06:46:36;;;;;;;12.30;7.10;;;7.60;99.90;;;;;;4820624;29;20058;-81
2022/11/02 06:49:03;;;;;;;12.02;7.18;;;7.60;99.90;;;;;;4820059;29;20047;-81
2022/11/02 06:51:33;;;;;;;13.25;7.50;;;7.60;99.90;;;;;;4818417;29;20536;-80
2022/11/02 06:54:00;;;;;;;9.48;6.82;;;7.60;99.90;;;;;;4821455;29;20062;-83
2022/11/02 06:56:28;;;;;;;10.88;8.77;;;7.70;99.90;;;;;;4820773;29;20527;-80
2022/11/02 06:58:58;;;;;;;14.07;8.93;;;7.70;99.90;;;;;;4818232;29;20106;-81
2022/11/02 07:01:26;;;;;;;11.52;7.90;;;7.60;99.90;;;;;;4816656;29;20062;-86
2022/11/02 07:03:55;;;;;;;12.73;8.95;;;7.60;99.90;;;;;;4822374;29;20059;-83
2022/11/02 07:06:22;;;;;;;10.80;8.48;;;7.70;99.90;;;;;;4811611;29;20081;-83
2022/11/02 07:08:52;;;;;;;13.70;8.18;;;7.60;99.90;;;;;;4815334;29;20050;-79
2022/11/02 07:11:20;;;;;;;14.00;7.88;;;7.70;99.90;;;;;;4815708;29;20047;-79
2022/11/02 07:13:49;;;;;;;10.25;8.10;;;7.70;99.90;;;;;;4818896;29;20042;-80
2022/11/02 07:16:19;;;;;;;10.75;7.22;;;7.70;99.90;;;;;;4817945;29;20050;-79
2022/11/02 07:18:46;;;;;;;8.50;6.18;;;7.70;99.90;;;;;;4813370;29;20133;-79
2022/11/02 07:21:15;;;;;;;8.75;7.03;;;7.70;99.90;;;;;;4818892;29;20062;-80
2022/11/02 07:23:43;;;;;;;11.15;7.78;;;7.70;99.90;;;;;;4810054;29;20523;-81
2022/11/02 07:26:10;;;;;;;10.40;7.28;;;7.70;99.90;;;;;;4815094;29;20046;-82
2022/11/02 07:28:38;;;;;;;9.30;7.15;;;7.70;99.90;;;;;;4814172;29;20419;-82
2022/11/02 07:31:07;;;;;;;10.15;6.70;;;7.80;99.90;;;;;;4814198;29;20050;-82
2022/11/02 07:33:38;;;;;;;7.72;6.35;;;7.80;99.90;;;;;;4819358;29;20130;-83
2022/11/02 07:36:10;;;;;;;8.25;6.63;;;7.80;99.90;;;;;;4817018;29;20126;-83
2022/11/02 07:38:39;;;;;;;10.00;6.97;;;7.80;99.90;;;;;;4819859;29;20121;-79
2022/11/02 07:41:07;;;;;;;11.43;7.78;;;7.80;99.90;;;;;;4811311;29;20057;-81
2022/11/02 07:43:34;;;;;;;9.45;7.45;;;7.80;99.90;;;;;;4814272;29;20423;-80
2022/11/02 07:46:25;;;;;;;9.45;7.05;;;7.80;99.90;;;;;;4810705;29;20066;-80
2022/11/02 07:48:52;;;;;;;9.68;7.50;;;7.80;99.90;;;;;;4814621;29;20133;-81
2022/11/02 07:51:20;;;;;;;9.35;7.22;;;7.80;99.90;;;;;;4812194;29;20061;-81
2022/11/02 07:53:49;;;;;;;9.82;7.57;;;7.80;99.90;;;;;;4811473;29;20141;-80
2022/11/02 07:56:16;;;;;;;9.27;6.88;;;7.80;99.90;;;;;;4818460;29;20155;-81
2022/11/02 07:58:43;;;;;;;13.00;8.15;;;7.80;99.90;;;;;;4817362;29;20050;-81
2022/11/02 08:01:10;;;;;;;10.50;7.15;;;7.80;99.90;;;;;;4816997;29;20074;-84
2022/11/02 08:03:38;;;;;;;9.35;7.90;;;7.90;99.90;;;;;;4813851;29;20054;-81
2022/11/02 08:06:06;;;;;;;11.32;7.88;;;7.90;99.90;;;;;;4818181;29;20051;-81
2022/11/02 08:08:33;;;;;;;9.88;7.05;;;7.90;99.90;;;;;;4817292;29;20058;-83
2022/11/02 08:11:07;;;;;;;9.85;7.75;;;7.90;99.90;;;;;;4819425;29;20144;-83
2022/11/02 08:13:34;;;;;;;7.50;6.50;;;7.90;99.90;;;;;;4818322;29;20511;-80
2022/11/02 08:16:02;;;;;;;7.85;6.72;;;7.80;99.90;;;;;;4800946;29;20054;-81
2022/11/02 08:18:31;;;;;;;8.88;7.43;;;7.90;99.90;;;;;;4798909;29;20070;-81
2022/11/02 08:20:59;;;;;;;7.80;6.13;;;7.90;99.90;;;;;;4812476;29;20050;-82
2022/11/02 08:23:27;;;;;;;9.52;6.78;;;7.90;99.90;;;;;;4801830;29;20079;-83
2022/11/02 08:25:58;;;;;;;12.27;6.50;;;8.00;99.90;;;;;;4817707;29;20520;-83
2022/11/02 08:28:30;;;;;;;7.80;7.00;;;8.00;99.90;;;;;;4819936;29;20161;-82
2022/11/02 08:30:58;;;;;;;9.45;6.85;;;7.90;99.90;;;;;;4816441;29;20500;-85
2022/11/02 08:33:26;;;;;;;8.65;6.90;;;7.90;99.90;;;;;;4818936;29;20042;-81
2022/11/02 08:35:53;;;;;;;12.20;7.00;;;8.00;99.90;;;;;;4818319;29;21016;-80
2022/11/02 08:38:21;;;;;;;7.32;6.50;;;8.00;99.90;;;;;;4839962;29;20608;-81
2022/11/02 08:40:49;;;;;;;9.40;6.97;;;8.00;99.90;;;;;;4830810;29;20606;-79
2022/11/02 08:43:16;;;;;;;8.38;7.40;;;8.00;99.90;;;;;;4826494;29;20046;-85
2022/11/02 08:45:45;;;;;;;7.03;6.32;;;8.00;99.90;;;;;;4813311;29;20042;-84
2022/11/02 08:48:12;;;;;;;6.95;6.25;;;8.00;99.90;;;;;;4817339;29;20137;-84
2022/11/02 08:50:40;;;;;;;6.22;5.72;;;8.10;99.90;;;;;;4809378;29;20046;-84
2022/11/02 08:53:08;;;;;;;6.55;5.95;;;8.00;99.90;;;;;;4825930;29;20477;-84
2022/11/02 08:55:38;;;;;;;8.63;5.75;;;8.00;99.90;;;;;;4819589;29;20506;-86
2022/11/02 08:58:05;;;;;;;6.28;5.65;;;8.10;99.90;;;;;;4828707;29;20060;-85
2022/11/02 09:00:35;;;;;;;6.25;5.65;;;8.10;99.90;;;;;;4822990;29;20144;-82
2022/11/02 09:03:06;;;;;;;10.68;7.05;;;8.10;99.90;;;;;;4820207;29;20054;-79
2022/11/02 09:05:35;;;;;;;11.43;7.70;;;8.10;99.90;;;;;;4823067;29;20150;-86
2022/11/02 09:08:05;;;;;;;8.45;7.13;;;8.20;99.90;;;;;;4824614;29;20046;-86
2022/11/02 09:10:34;;;;;;;8.88;7.22;;;8.20;99.90;;;;;;4823904;29;20052;-91
2022/11/02 09:13:03;;;;;;;9.85;7.35;;;8.20;99.90;;;;;;4837150;29;20516;-89
2022/11/02 09:15:30;;;;;;;7.88;6.32;;;8.30;99.90;;;;;;4831184;29;20477;-85
2022/11/02 09:17:58;;;;;;;6.75;5.50;;;8.30;99.90;;;;;;4844086;29;20123;-83
2022/11/02 09:20:27;;;;;;;7.13;4.72;;;8.30;99.90;;;;;;4819684;29;20254;-81
2022/11/02 09:22:57;;;;;;;7.70;5.57;;;8.40;99.90;;;;;;4819019;29;20065;-80
2022/11/02 09:25:27;;;;;;;5.80;5.30;;;8.40;99.90;;;;;;4822657;29;20148;-79
2022/11/02 09:27:56;;;;;;;5.40;4.20;;;8.30;99.90;;;;;;4813381;29;20439;-82
2022/11/02 09:30:24;;;;;;;4.72;4.30;;;8.30;99.90;;;;;;4826974;29;20061;-81
2022/11/02 09:32:55;;;;;;;5.13;4.22;;;8.30;99.90;;;;;;4828756;29;20050;-85
2022/11/02 09:35:24;;;;;;;5.18;4.68;;;8.30;99.90;;;;;;4826007;29;20095;-84
2022/11/02 09:37:52;;;;;;;5.32;4.40;;;8.30;99.90;;;;;;4824273;29;20424;-82
2022/11/02 09:40:22;;;;;;;4.75;4.00;;;8.40;99.90;;;;;;4831882;29;20110;-80
2022/11/02 09:43:02;;;;;;;5.38;4.40;;;8.40;99.90;;;;;;4824107;29;20058;-81
2022/11/02 09:45:33;;;;;;;3.75;3.45;;;8.50;99.90;;;;;;4822085;29;20130;-81
2022/11/02 09:48:04;;;;;;;6.70;3.67;;;8.50;99.90;;;;;;4819849;29;20126;-80
2022/11/02 09:50:40;;;;;;;3.20;2.85;;;8.60;99.90;;;;;;4825438;29;20095;-79
2022/11/02 09:53:12;;;;;;;4.50;2.35;;;8.60;99.90;;;;;;4819856;29;20050;-78
2022/11/02 09:55:46;;;;;;;2.83;2.58;;;8.70;99.90;;;;;;4817263;29;20046;-80
2022/11/02 09:58:19;;;;;;;2.10;1.90;;;8.60;99.90;;;;;;4816072;29;20054;-79
2022/11/02 10:00:48;;;;;;;;;;;8.60;99.90;;;;;;4818695;29;20050;-81
2022/11/02 10:03:28;;;;;;;2.95;2.28;;;8.70;99.90;;;;;;4816713;29;19943;-82
2022/11/02 10:05:58;;;;;;;2.83;2.63;;;8.70;99.90;;;;;;4820109;29;20061;-80
2022/11/02 10:08:37;;;;;;;3.55;2.08;;;8.70;99.90;;;;;;4814952;29;20130;-76
2022/11/02 10:11:22;;;;;;;5.78;2.50;;;8.70;99.90;;;;;;4818078;29;20095;-78
2022/11/02 10:13:54;;;;;;;2.20;2.00;;;8.80;99.90;;;;;;4819336;29;20087;-76
2022/11/02 10:16:26;;;;;;;3.60;2.20;;;8.70;99.90;;;;;;4816386;29;20508;-77
2022/11/02 10:18:56;;;;;;;2.00;1.77;;;8.70;99.90;;;;;;4816317;29;20065;-76
2022/11/02 10:21:27;;;;;;;2.05;1.80;;;8.60;99.90;;;;;;4815886;29;20065;-78
2022/11/02 10:23:58;;;;;;;2.13;1.92;;;8.60;99.90;;;;;;4815994;29;20145;-77
2022/11/02 10:26:29;;;;;;;1.70;1.60;;;8.60;99.90;;;;;;4812588;29;20050;-79
2022/11/02 10:29:03;;;;;;;2.60;2.40;;;8.50;99.90;;;;;;4816175;29;20062;-77
2022/11/02 10:31:33;;;;;;;2.50;1.80;;;8.50;99.90;;;;;;4815240;29;20423;-77
2022/11/02 10:34:14;;;;;;;3.90;2.03;;;8.50;99.90;;;;;;4802651;29;20500;-75
2022/11/02 10:36:53;;;;;;;2.60;2.40;;;8.50;99.90;;;;;;4798695;29;20085;-77
2022/11/02 10:39:30;;;;;;;3.45;2.40;;;8.50;99.90;;;;;;4814857;29;20074;-77
2022/11/02 10:42:11;;;;;;;2.90;2.70;;;8.50;99.90;;;;;;4820799;29;20051;-78
2022/11/02 10:44:56;;;;;;;3.83;3.53;;;8.50;99.90;;;;;;4817508;29;20444;-78
2022/11/02 10:47:30;;;;;;;2.75;2.40;;;8.50;99.90;;;;;;4830331;29;20104;-82
2022/11/02 10:50:12;;;;;;;2.40;2.20;;;8.50;99.90;;;;;;4824450;29;20081;-83
2022/11/02 10:52:43;;;;;;;2.55;1.70;;;8.50;99.90;;;;;;4815212;29;20081;-83
2022/11/02 10:55:22;;;;;;;2.08;1.92;;;8.50;99.90;;;;;;4819780;29;20085;-81
2022/11/02 10:57:51;;;;;;;2.40;2.20;;;8.50;99.90;;;;;;4813308;29;20152;-82
2022/11/02 11:00:29;;;;;;;1.73;1.60;;;8.50;99.90;;;;;;4816051;29;20508;-80
2022/11/02 11:03:12;;;;;;;2.05;1.60;;;8.40;99.90;;;;;;4814480;29;20050;-84
2022/11/02 11:05:59;;;;;;;1.25;1.15;;;8.40;99.90;;;;;;4817066;29;20058;-80
2022/11/02 11:08:37;;;;;;;3.13;1.30;;;8.40;99.90;;;;;;4814378;29;20501;-81
2022/11/02 11:11:24;;;;;;;2.20;2.00;;;8.40;99.90;;;;;;4816440;29;20469;-83
2022/11/02 11:14:02;;;;;;;4.55;2.10;;;8.50;99.90;;;;;;4817334;29;20053;-81
2022/11/02 11:16:41;;;;;;;2.15;1.70;;;8.50;99.90;;;;;;4820973;29;20420;-83
2022/11/02 11:19:24;;;;;;;1.73;1.63;;;8.50;99.90;;;;;;4820956;29;20062;-82
2022/11/02 11:21:51;;;;;;;1.70;1.60;;;8.50;99.90;;;;;;4821464;29;20187;-81
2022/11/02 11:24:25;;;;;;;1.67;1.58;;;8.50;99.90;;;;;;4818867;29;20065;-80
2022/11/02 11:27:15;;;;;;;1.63;1.52;;;8.50;99.90;;;;;;4814452;29;20046;-84
2022/11/02 11:29:48;;;;;;;3.78;1.60;;;8.50;99.90;;;;;;4821468;29;20049;-78
2022/11/02 11:32:19;;;;;;;5.68;1.67;;;8.50;99.90;;;;;;4813691;29;20054;-81
2022/11/02 11:34:54;;;;;;;2.17;1.85;;;8.50;99.90;;;;;;4819165;29;20066;-81
2022/11/02 11:37:23;;;;;;;2.55;1.70;;;8.50;99.90;;;;;;4815278;29;20055;-78
2022/11/02 11:39:53;;;;;;;2.20;1.95;;;8.50;99.90;;;;;;4821803;29;20126;-79
2022/11/02 11:42:24;;;;;;;1.63;1.52;;;8.50;99.90;;;;;;4821131;29;20062;-78
2022/11/02 11:44:57;;;;;;;1.92;1.83;;;8.50;99.90;;;;;;4822053;29;20050;-80
2022/11/02 11:47:28;;;;;;;2.35;1.83;;;8.60;99.90;;;;;;4821018;29;20527;-80
2022/11/02 11:49:56;;;;;;;2.15;1.95;;;8.60;99.90;;;;;;4821047;29;20145;-80
2022/11/02 11:52:27;;;;;;;2.28;1.75;;;8.50;99.90;;;;;;4821303;29;20060;-80
2022/11/02 11:54:57;;;;;;;2.72;2.05;;;8.50;99.90;;;;;;4820471;29;20062;-80
2022/11/02 11:57:30;;;;;;;2.03;1.88;;;8.50;99.90;;;;;;4818076;29;20055;-82
2022/11/02 12:00:03;;;;;;;2.03;1.83;;;8.50;99.90;;;;;;4821345;29;20065;-83
2022/11/02 12:02:34;;;;;;;4.22;1.92;;;8.50;99.90;;;;;;4832882;29;20050;-81
2022/11/02 12:05:11;;;;;;;3.00;1.95;;;8.50;99.90;;;;;;4820418;29;20112;-82
2022/11/02 12:08:02;;;;;;;2.65;1.30;;;8.50;99.90;;;;;;4818158;29;20068;-83
2022/11/02 12:10:44;;;;;;;1.60;1.50;;;8.50;99.90;;;;;;4820593;29;20115;-83
2022/11/02 12:13:25;;;;;;;3.88;2.05;;;8.40;99.90;;;;;;4820598;29;20065;-77
2022/11/02 12:16:06;;;;;;;3.58;1.55;;;8.40;99.90;;;;;;4819004;29;20062;-78
2022/11/02 12:18:51;;;;;;;1.92;1.60;;;8.40;99.90;;;;;;4803978;29;20486;-79
2022/11/02 12:21:35;;;;;;;4.22;2.17;;;8.40;99.90;;;;;;4820765;29;20054;-78
2022/11/02 12:24:28;;;;;;;1.73;1.33;;;8.30;99.90;;;;;;4820982;29;20058;-84
2022/11/02 12:27:12;;;;;;;1.53;1.30;;;8.30;99.90;;;;;;4822261;29;20058;-80
2022/11/02 12:30:03;;;;;;;1.40;1.30;;;8.30;99.90;;;;;;4821891;29;20058;-76
2022/11/02 12:32:49;;;;;;;1.42;1.33;;;8.30;99.90;;;;;;4817992;29;20713;-78
2022/11/02 12:35:27;;;;;;;1.88;1.77;;;8.30;99.90;;;;;;4813953;29;20126;-79
2022/11/02 12:38:37;;;;;;;1.55;1.45;;;8.30;99.90;;;;;;4816696;29;20061;-77
2022/11/02 12:41:07;;;;;;;1.45;1.35;;;8.20;99.90;;;;;;4820252;29;20050;-78
2022/11/02 12:43:44;;;;;;;1.45;1.35;;;8.30;99.90;;;;;;4820322;29;20047;-77
2022/11/02 12:46:27;;;;;;;2.00;1.20;;;8.20;99.90;;;;;;4821173;29;20160;-84
2022/11/02 12:49:05;;;;;;;1.42;1.33;;;8.20;99.90;;;;;;4834110;29;20058;-84
2022/11/02 12:51:38;;;;;;;1.45;1.35;;;8.20;99.90;;;;;;4824331;29;20118;-83
2022/11/02 12:54:09;;;;;;;;;;;8.10;99.90;;;;;;4823353;29;20129;-83
2022/11/02 12:56:46;;;;;;;2.05;1.60;;;8.10;99.90;;;;;;4825291;29;19935;-84
2022/11/02 12:59:18;;;;;;;1.67;1.58;;;8.10;99.90;;;;;;4825783;29;20504;-83
2022/11/02 13:01:51;;;;;;;1.63;1.53;;;8.10;99.90;;;;;;4827806;29;20085;-82
2022/11/02 13:04:23;;;;;;;1.63;1.50;;;8.10;99.90;;;;;;4826417;29;20054;-86
2022/11/02 13:06:55;;;;;;;1.92;1.83;;;8.10;99.90;;;;;;4826458;29;20397;-87
2022/11/02 13:09:30;;;;;;;2.25;1.85;;;8.10;99.90;;;;;;4821545;29;20066;-86
2022/11/02 13:12:02;;;;;;;2.70;1.80;;;8.10;99.90;;;;;;4814289;29;20058;-82
2022/11/02 13:14:37;;;;;;;2.47;2.28;;;8.10;99.90;;;;;;4816571;29;20065;-78
2022/11/02 13:17:10;;;;;;;1.92;1.80;;;8.10;99.90;;;;;;4820801;29;20062;-79
2022/11/02 13:19:41;;;;;;;3.42;2.00;;;8.00;99.90;;;;;;4824540;29;20076;-86
2022/11/02 13:22:11;;;;;;;2.30;2.13;;;8.00;99.90;;;;;;4827864;29;20054;-81
2022/11/02 13:24:43;;;;;;;2.40;2.20;;;8.00;99.90;;;;;;4823081;29;20058;-79
2022/11/02 13:27:25;;;;;;;4.03;2.55;;;8.00;99.90;;;;;;4822158;29;20062;-80
2022/11/02 13:29:56;;;;;;;2.47;2.27;;;8.00;99.90;;;;;;4820205;29;20089;-79
2022/11/02 13:32:32;;;;;;;3.22;2.92;;;8.00;99.90;;;;;;4818602;29;20122;-81